sensor_id;sensor_type;location;lat;lon;timestamp;temperature;humidity
35559;DHT22;21661;50.794;-1.066;2022-12-18T00:01:48;5.00;99.90
35559;DHT22;21661;50.794;-1.066;2022-12-18T00:04:24;5.00;99.90
35559;DHT22;21661;50.794;-1.066;2022-12-18T00:06:50;5.00;99.90
35559;DHT22;21661;50.794;-1.066;2022-12-18T00:09:16;5.00;99.90
35559;DHT22;21661;50.794;-1.066;2022-12-18T00:11:42;5.00;99.90
35559;DHT22;21661;50.794;-1.066;2022-12-18T00:14:09;5.00;99.90
35559;DHT22;21661;50.794;-1.066;2022-12-18T00:16:36;5.00;99.90
35559;DHT22;21661;50.794;-1.066;2022-12-18T00:19:03;4.90;99.90
35559;DHT22;21661;50.794;-1.066;2022-12-18T00:21:30;5.00;99.90
35559;DHT22;21661;50.794;-1.066;2022-12-18T00:23:57;5.00;99.90
35559;DHT22;21661;50.794;-1.066;2022-12-18T00:26:26;5.10;99.90
35559;DHT22;21661;50.794;-1.066;2022-12-18T00:28:52;5.00;99.90
35559;DHT22;21661;50.794;-1.066;2022-12-18T00:31:20;5.10;99.90
35559;DHT22;21661;50.794;-1.066;2022-12-18T00:33:46;5.10;99.90
35559;DHT22;21661;50.794;-1.066;2022-12-18T00:36:18;5.10;99.90
35559;DHT22;21661;50.794;-1.066;2022-12-18T00:38:45;5.10;99.90
35559;DHT22;21661;50.794;-1.066;2022-12-18T00:41:12;5.10;99.90
35559;DHT22;21661;50.794;-1.066;2022-12-18T00:43:38;5.20;99.90
35559;DHT22;21661;50.794;-1.066;2022-12-18T00:46:05;5.20;99.90
35559;DHT22;21661;50.794;-1.066;2022-12-18T00:48:30;5.20;99.90
35559;DHT22;21661;50.794;-1.066;2022-12-18T00:50:56;5.20;99.90
35559;DHT22;21661;50.794;-1.066;2022-12-18T00:53:22;5.10;99.90
35559;DHT22;21661;50.794;-1.066;2022-12-18T00:55:47;5.10;99.90
35559;DHT22;21661;50.794;-1.066;2022-12-18T00:58:15;5.10;99.90
35559;DHT22;21661;50.794;-1.066;2022-12-18T01:00:41;5.10;99.90
35559;DHT22;21661;50.794;-1.066;2022-12-18T01:03:07;5.20;99.90
35559;DHT22;21661;50.794;-1.066;2022-12-18T01:05:33;5.20;99.90
35559;DHT22;21661;50.794;-1.066;2022-12-18T01:07:59;5.10;99.90
35559;DHT22;21661;50.794;-1.066;2022-12-18T01:10:25;5.10;99.90
35559;DHT22;21661;50.794;-1.066;2022-12-18T01:12:51;5.20;99.90
35559;DHT22;21661;50.794;-1.066;2022-12-18T01:15:18;5.20;99.90
35559;DHT22;21661;50.794;-1.066;2022-12-18T01:17:44;5.20;99.90
35559;DHT22;21661;50.794;-1.066;2022-12-18T01:20:11;5.20;99.90
35559;DHT22;21661;50.794;-1.066;2022-12-18T01:22:37;5.20;99.90
35559;DHT22;21661;50.794;-1.066;2022-12-18T01:25:03;5.20;99.90
35559;DHT22;21661;50.794;-1.066;2022-12-18T01:27:29;5.20;99.90
35559;DHT22;21661;50.794;-1.066;2022-12-18T01:29:55;5.30;99.90
35559;DHT22;21661;50.794;-1.066;2022-12-18T01:32:21;5.30;99.90
35559;DHT22;21661;50.794;-1.066;2022-12-18T01:34:47;5.30;99.90
35559;DHT22;21661;50.794;-1.066;2022-12-18T01:37:13;5.30;99.90
35559;DHT22;21661;50.794;-1.066;2022-12-18T01:39:38;5.30;99.90
35559;DHT22;21661;50.794;-1.066;2022-12-18T01:42:12;5.20;99.90
35559;DHT22;21661;50.794;-1.066;2022-12-18T01:47:39;5.20;99.90
35559;DHT22;21661;50.794;-1.066;2022-12-18T01:52:43;5.20;99.90
35559;DHT22;21661;50.794;-1.066;2022-12-18T01:55:11;5.30;99.90
35559;DHT22;21661;50.794;-1.066;2022-12-18T01:57:38;5.30;99.90
35559;DHT22;21661;50.794;-1.066;2022-12-18T02:00:09;5.30;99.90
35559;DHT22;21661;50.794;-1.066;2022-12-18T02:02:35;5.30;99.90
35559;DHT22;21661;50.794;-1.066;2022-12-18T02:05:03;5.30;99.90
35559;DHT22;21661;50.794;-1.066;2022-12-18T02:10:07;5.30;99.90
35559;DHT22;21661;50.794;-1.066;2022-12-18T02:17:46;5.40;99.90
35559;DHT22;21661;50.794;-1.066;2022-12-18T02:20:38;5.40;99.90
35559;DHT22;21661;50.794;-1.066;2022-12-18T02:23:39;5.40;99.90
35559;DHT22;21661;50.794;-1.066;2022-12-18T02:26:20;5.40;99.90
35559;DHT22;21661;50.794;-1.066;2022-12-18T02:29:11;5.50;99.90
35559;DHT22;21661;50.794;-1.066;2022-12-18T02:31:51;5.50;99.90
35559;DHT22;21661;50.794;-1.066;2022-12-18T02:34:19;5.50;99.90
35559;DHT22;21661;50.794;-1.066;2022-12-18T02:36:48;5.50;99.90
35559;DHT22;21661;50.794;-1.066;2022-12-18T02:39:15;5.50;99.90
35559;DHT22;21661;50.794;-1.066;2022-12-18T02:41:41;5.50;99.90
35559;DHT22;21661;50.794;-1.066;2022-12-18T02:44:10;5.50;99.90
35559;DHT22;21661;50.794;-1.066;2022-12-18T02:46:39;5.60;99.90
35559;DHT22;21661;50.794;-1.066;2022-12-18T02:49:38;5.50;99.90
35559;DHT22;21661;50.794;-1.066;2022-12-18T02:57:20;5.50;99.90
35559;DHT22;21661;50.794;-1.066;2022-12-18T03:02:59;5.50;99.90
35559;DHT22;21661;50.794;-1.066;2022-12-18T03:05:35;5.50;99.90
35559;DHT22;21661;50.794;-1.066;2022-12-18T03:08:16;5.50;99.90
35559;DHT22;21661;50.794;-1.066;2022-12-18T03:10:53;5.40;99.90
35559;DHT22;21661;50.794;-1.066;2022-12-18T03:13:31;5.50;99.90
35559;DHT22;21661;50.794;-1.066;2022-12-18T03:15:59;5.50;99.90
35559;DHT22;21661;50.794;-1.066;2022-12-18T03:18:34;5.50;99.90
35559;DHT22;21661;50.794;-1.066;2022-12-18T03:21:05;5.50;99.90
35559;DHT22;21661;50.794;-1.066;2022-12-18T03:23:37;5.50;99.90
35559;DHT22;21661;50.794;-1.066;2022-12-18T03:26:08;5.50;99.90
35559;DHT22;21661;50.794;-1.066;2022-12-18T03:28:42;5.50;99.90
35559;DHT22;21661;50.794;-1.066;2022-12-18T03:31:12;5.50;99.90
35559;DHT22;21661;50.794;-1.066;2022-12-18T03:33:57;5.50;99.90
35559;DHT22;21661;50.794;-1.066;2022-12-18T03:36:24;5.60;99.90
35559;DHT22;21661;50.794;-1.066;2022-12-18T03:38:51;5.60;99.90
35559;DHT22;21661;50.794;-1.066;2022-12-18T03:49:25;5.50;99.90
35559;DHT22;21661;50.794;-1.066;2022-12-18T03:52:49;5.50;99.90
35559;DHT22;21661;50.794;-1.066;2022-12-18T03:54:56;5.50;99.90
35559;DHT22;21661;50.794;-1.066;2022-12-18T03:57:26;5.50;99.90
35559;DHT22;21661;50.794;-1.066;2022-12-18T03:59:59;5.50;99.90
35559;DHT22;21661;50.794;-1.066;2022-12-18T04:02:26;5.50;99.90
35559;DHT22;21661;50.794;-1.066;2022-12-18T04:04:53;5.50;99.90
35559;DHT22;21661;50.794;-1.066;2022-12-18T04:07:21;5.40;99.90
35559;DHT22;21661;50.794;-1.066;2022-12-18T04:09:49;5.50;99.90
35559;DHT22;21661;50.794;-1.066;2022-12-18T04:12:15;5.50;99.90
35559;DHT22;21661;50.794;-1.066;2022-12-18T04:14:41;5.60;99.90
35559;DHT22;21661;50.794;-1.066;2022-12-18T04:17:06;5.50;99.90
35559;DHT22;21661;50.794;-1.066;2022-12-18T04:19:32;5.60;99.90
35559;DHT22;21661;50.794;-1.066;2022-12-18T04:21:58;5.60;99.90
35559;DHT22;21661;50.794;-1.066;2022-12-18T04:24:23;5.60;99.90
35559;DHT22;21661;50.794;-1.066;2022-12-18T04:26:49;5.60;99.90
35559;DHT22;21661;50.794;-1.066;2022-12-18T04:29:14;5.70;99.90
35559;DHT22;21661;50.794;-1.066;2022-12-18T04:31:40;5.70;99.90
35559;DHT22;21661;50.794;-1.066;2022-12-18T04:34:06;5.70;99.90
35559;DHT22;21661;50.794;-1.066;2022-12-18T04:36:31;5.70;99.90
35559;DHT22;21661;50.794;-1.066;2022-12-18T04:38:57;5.70;99.90
35559;DHT22;21661;50.794;-1.066;2022-12-18T04:41:22;5.70;99.90
35559;DHT22;21661;50.794;-1.066;2022-12-18T04:43:48;5.70;99.90
35559;DHT22;21661;50.794;-1.066;2022-12-18T04:46:14;5.70;99.90
35559;DHT22;21661;50.794;-1.066;2022-12-18T04:48:39;5.80;99.90
35559;DHT22;21661;50.794;-1.066;2022-12-18T04:51:05;5.80;99.90
35559;DHT22;21661;50.794;-1.066;2022-12-18T04:53:32;5.70;99.90
35559;DHT22;21661;50.794;-1.066;2022-12-18T04:56:09;5.70;99.90
35559;DHT22;21661;50.794;-1.066;2022-12-18T04:58:36;5.70;99.90
35559;DHT22;21661;50.794;-1.066;2022-12-18T05:01:02;5.70;99.90
35559;DHT22;21661;50.794;-1.066;2022-12-18T05:03:28;5.70;99.90
35559;DHT22;21661;50.794;-1.066;2022-12-18T05:05:53;5.70;99.90
35559;DHT22;21661;50.794;-1.066;2022-12-18T05:08:19;5.60;99.90
35559;DHT22;21661;50.794;-1.066;2022-12-18T05:10:45;5.70;99.90
35559;DHT22;21661;50.794;-1.066;2022-12-18T05:13:10;5.70;99.90
35559;DHT22;21661;50.794;-1.066;2022-12-18T05:15:36;5.70;99.90
35559;DHT22;21661;50.794;-1.066;2022-12-18T05:18:02;5.70;99.90
35559;DHT22;21661;50.794;-1.066;2022-12-18T05:20:29;5.70;99.90
35559;DHT22;21661;50.794;-1.066;2022-12-18T05:22:55;5.60;99.90
35559;DHT22;21661;50.794;-1.066;2022-12-18T05:25:22;5.70;99.90
35559;DHT22;21661;50.794;-1.066;2022-12-18T05:27:48;5.70;99.90
35559;DHT22;21661;50.794;-1.066;2022-12-18T05:30:14;5.70;99.90
35559;DHT22;21661;50.794;-1.066;2022-12-18T05:32:40;5.80;99.90
35559;DHT22;21661;50.794;-1.066;2022-12-18T05:35:08;5.80;99.90
35559;DHT22;21661;50.794;-1.066;2022-12-18T05:37:34;5.70;99.90
35559;DHT22;21661;50.794;-1.066;2022-12-18T05:39:59;5.70;99.90
35559;DHT22;21661;50.794;-1.066;2022-12-18T05:42:25;5.70;99.90
35559;DHT22;21661;50.794;-1.066;2022-12-18T05:44:51;5.70;99.90
35559;DHT22;21661;50.794;-1.066;2022-12-18T05:47:16;5.70;99.90
35559;DHT22;21661;50.794;-1.066;2022-12-18T05:49:42;5.70;99.90
35559;DHT22;21661;50.794;-1.066;2022-12-18T05:52:08;5.70;99.90
35559;DHT22;21661;50.794;-1.066;2022-12-18T05:54:34;5.70;99.90
35559;DHT22;21661;50.794;-1.066;2022-12-18T05:56:59;5.70;99.90
35559;DHT22;21661;50.794;-1.066;2022-12-18T05:59:25;5.70;99.90
35559;DHT22;21661;50.794;-1.066;2022-12-18T06:01:51;5.70;99.90
35559;DHT22;21661;50.794;-1.066;2022-12-18T06:04:16;5.70;99.90
35559;DHT22;21661;50.794;-1.066;2022-12-18T06:06:42;5.80;99.90
35559;DHT22;21661;50.794;-1.066;2022-12-18T06:09:07;5.80;99.90
35559;DHT22;21661;50.794;-1.066;2022-12-18T06:11:36;5.70;99.90
35559;DHT22;21661;50.794;-1.066;2022-12-18T06:14:03;5.70;99.90
35559;DHT22;21661;50.794;-1.066;2022-12-18T06:16:29;5.60;99.90
35559;DHT22;21661;50.794;-1.066;2022-12-18T06:19:02;5.60;99.90
35559;DHT22;21661;50.794;-1.066;2022-12-18T06:21:29;5.70;99.90
35559;DHT22;21661;50.794;-1.066;2022-12-18T06:23:55;5.70;99.90
35559;DHT22;21661;50.794;-1.066;2022-12-18T06:26:21;5.60;99.90
35559;DHT22;21661;50.794;-1.066;2022-12-18T06:28:46;5.60;99.90
35559;DHT22;21661;50.794;-1.066;2022-12-18T06:31:12;5.60;99.90
35559;DHT22;21661;50.794;-1.066;2022-12-18T06:33:38;5.60;99.90
35559;DHT22;21661;50.794;-1.066;2022-12-18T06:36:13;5.60;99.90
35559;DHT22;21661;50.794;-1.066;2022-12-18T06:38:41;5.60;99.90
35559;DHT22;21661;50.794;-1.066;2022-12-18T06:41:15;5.60;99.90
35559;DHT22;21661;50.794;-1.066;2022-12-18T06:43:41;5.70;99.90
35559;DHT22;21661;50.794;-1.066;2022-12-18T06:46:07;5.70;99.90
35559;DHT22;21661;50.794;-1.066;2022-12-18T06:48:34;5.70;99.90
35559;DHT22;21661;50.794;-1.066;2022-12-18T06:50:59;5.70;99.90
35559;DHT22;21661;50.794;-1.066;2022-12-18T06:53:25;5.70;99.90
35559;DHT22;21661;50.794;-1.066;2022-12-18T06:55:51;5.70;99.90
35559;DHT22;21661;50.794;-1.066;2022-12-18T06:58:17;5.60;99.90
35559;DHT22;21661;50.794;-1.066;2022-12-18T07:00:43;5.60;99.90
35559;DHT22;21661;50.794;-1.066;2022-12-18T07:03:09;5.70;99.90
35559;DHT22;21661;50.794;-1.066;2022-12-18T07:05:34;5.70;99.90
35559;DHT22;21661;50.794;-1.066;2022-12-18T07:08:04;5.70;99.90
35559;DHT22;21661;50.794;-1.066;2022-12-18T07:10:30;5.70;99.90
35559;DHT22;21661;50.794;-1.066;2022-12-18T07:12:56;5.80;99.90
35559;DHT22;21661;50.794;-1.066;2022-12-18T07:15:21;5.70;99.90
35559;DHT22;21661;50.794;-1.066;2022-12-18T07:17:47;5.70;99.90
35559;DHT22;21661;50.794;-1.066;2022-12-18T07:20:12;5.70;99.90
35559;DHT22;21661;50.794;-1.066;2022-12-18T07:22:38;5.60;99.90
35559;DHT22;21661;50.794;-1.066;2022-12-18T07:25:04;5.70;99.90
35559;DHT22;21661;50.794;-1.066;2022-12-18T07:27:29;5.70;99.90
35559;DHT22;21661;50.794;-1.066;2022-12-18T07:29:55;5.60;99.90
35559;DHT22;21661;50.794;-1.066;2022-12-18T07:32:21;5.70;99.90
35559;DHT22;21661;50.794;-1.066;2022-12-18T07:34:46;5.70;99.90
35559;DHT22;21661;50.794;-1.066;2022-12-18T07:37:12;5.70;99.90
35559;DHT22;21661;50.794;-1.066;2022-12-18T07:39:37;5.70;99.90
35559;DHT22;21661;50.794;-1.066;2022-12-18T07:42:03;5.70;99.90
35559;DHT22;21661;50.794;-1.066;2022-12-18T07:44:47;5.70;99.90
35559;DHT22;21661;50.794;-1.066;2022-12-18T07:47:13;5.70;99.90
35559;DHT22;21661;50.794;-1.066;2022-12-18T07:49:39;5.80;99.90
35559;DHT22;21661;50.794;-1.066;2022-12-18T07:52:04;5.70;99.90
35559;DHT22;21661;50.794;-1.066;2022-12-18T07:54:30;5.80;99.90
35559;DHT22;21661;50.794;-1.066;2022-12-18T07:56:55;5.80;99.90
35559;DHT22;21661;50.794;-1.066;2022-12-18T07:59:21;5.80;99.90
35559;DHT22;21661;50.794;-1.066;2022-12-18T08:01:46;5.80;99.90
35559;DHT22;21661;50.794;-1.066;2022-12-18T08:04:12;5.80;99.90
35559;DHT22;21661;50.794;-1.066;2022-12-18T08:06:38;5.80;99.90
35559;DHT22;21661;50.794;-1.066;2022-12-18T08:09:03;5.80;99.90
35559;DHT22;21661;50.794;-1.066;2022-12-18T08:11:29;5.80;99.90
35559;DHT22;21661;50.794;-1.066;2022-12-18T08:13:55;5.80;99.90
35559;DHT22;21661;50.794;-1.066;2022-12-18T08:16:21;5.80;99.90
35559;DHT22;21661;50.794;-1.066;2022-12-18T08:18:48;5.80;99.90
35559;DHT22;21661;50.794;-1.066;2022-12-18T08:21:19;5.80;99.90
35559;DHT22;21661;50.794;-1.066;2022-12-18T08:23:46;5.80;99.90
35559;DHT22;21661;50.794;-1.066;2022-12-18T08:26:12;5.90;99.90
35559;DHT22;21661;50.794;-1.066;2022-12-18T08:28:38;5.90;99.90
35559;DHT22;21661;50.794;-1.066;2022-12-18T08:31:03;5.90;99.90
35559;DHT22;21661;50.794;-1.066;2022-12-18T08:33:29;5.90;99.90
35559;DHT22;21661;50.794;-1.066;2022-12-18T08:35:55;5.90;99.90
35559;DHT22;21661;50.794;-1.066;2022-12-18T08:38:20;5.90;99.90
35559;DHT22;21661;50.794;-1.066;2022-12-18T08:40:46;5.90;99.90
35559;DHT22;21661;50.794;-1.066;2022-12-18T08:43:12;6.00;99.90
35559;DHT22;21661;50.794;-1.066;2022-12-18T08:45:56;6.00;99.90
35559;DHT22;21661;50.794;-1.066;2022-12-18T08:48:22;6.00;99.90
35559;DHT22;21661;50.794;-1.066;2022-12-18T08:50:58;6.00;99.90
35559;DHT22;21661;50.794;-1.066;2022-12-18T08:53:24;6.10;99.90
35559;DHT22;21661;50.794;-1.066;2022-12-18T08:55:49;6.10;99.90
35559;DHT22;21661;50.794;-1.066;2022-12-18T08:58:15;6.10;99.90
35559;DHT22;21661;50.794;-1.066;2022-12-18T09:00:41;6.10;99.90
35559;DHT22;21661;50.794;-1.066;2022-12-18T09:03:12;6.10;99.90
35559;DHT22;21661;50.794;-1.066;2022-12-18T09:05:37;6.20;99.90
35559;DHT22;21661;50.794;-1.066;2022-12-18T09:08:03;6.10;99.90
35559;DHT22;21661;50.794;-1.066;2022-12-18T09:10:29;6.10;99.90
35559;DHT22;21661;50.794;-1.066;2022-12-18T09:12:54;6.10;99.90
35559;DHT22;21661;50.794;-1.066;2022-12-18T09:15:21;6.20;99.90
35559;DHT22;21661;50.794;-1.066;2022-12-18T09:17:47;6.20;99.90
35559;DHT22;21661;50.794;-1.066;2022-12-18T09:20:13;6.10;99.90
35559;DHT22;21661;50.794;-1.066;2022-12-18T09:22:39;6.10;99.90
35559;DHT22;21661;50.794;-1.066;2022-12-18T09:25:05;6.10;99.90
35559;DHT22;21661;50.794;-1.066;2022-12-18T09:27:33;6.10;99.90
35559;DHT22;21661;50.794;-1.066;2022-12-18T09:29:59;6.10;99.90
35559;DHT22;21661;50.794;-1.066;2022-12-18T09:32:24;6.10;99.90
35559;DHT22;21661;50.794;-1.066;2022-12-18T09:34:50;6.10;99.90
35559;DHT22;21661;50.794;-1.066;2022-12-18T09:37:16;6.10;99.90
35559;DHT22;21661;50.794;-1.066;2022-12-18T09:39:41;6.20;99.90
35559;DHT22;21661;50.794;-1.066;2022-12-18T09:42:19;6.20;99.90
35559;DHT22;21661;50.794;-1.066;2022-12-18T09:44:50;6.20;99.90
35559;DHT22;21661;50.794;-1.066;2022-12-18T09:47:17;6.10;99.90
35559;DHT22;21661;50.794;-1.066;2022-12-18T09:49:49;6.10;99.90
35559;DHT22;21661;50.794;-1.066;2022-12-18T09:55:29;6.00;99.90
35559;DHT22;21661;50.794;-1.066;2022-12-18T09:58:15;6.00;99.90
35559;DHT22;21661;50.794;-1.066;2022-12-18T10:00:42;6.00;99.90
35559;DHT22;21661;50.794;-1.066;2022-12-18T10:03:13;6.00;99.90
35559;DHT22;21661;50.794;-1.066;2022-12-18T10:20:01;6.20;99.90
35559;DHT22;21661;50.794;-1.066;2022-12-18T10:22:43;6.30;99.90
35559;DHT22;21661;50.794;-1.066;2022-12-18T10:25:49;6.30;99.90
35559;DHT22;21661;50.794;-1.066;2022-12-18T10:28:14;6.40;99.90
35559;DHT22;21661;50.794;-1.066;2022-12-18T10:30:40;6.40;99.90
35559;DHT22;21661;50.794;-1.066;2022-12-18T10:33:14;6.50;99.90
35559;DHT22;21661;50.794;-1.066;2022-12-18T10:35:42;6.50;99.90
35559;DHT22;21661;50.794;-1.066;2022-12-18T10:40:58;6.50;99.90
35559;DHT22;21661;50.794;-1.066;2022-12-18T10:43:30;6.50;99.90
35559;DHT22;21661;50.794;-1.066;2022-12-18T10:48:30;6.50;99.90
35559;DHT22;21661;50.794;-1.066;2022-12-18T10:50:56;6.50;99.90
35559;DHT22;21661;50.794;-1.066;2022-12-18T10:53:25;6.60;99.90
35559;DHT22;21661;50.794;-1.066;2022-12-18T10:55:53;6.60;99.90
35559;DHT22;21661;50.794;-1.066;2022-12-18T11:03:37;6.70;99.90
35559;DHT22;21661;50.794;-1.066;2022-12-18T11:08:30;6.80;99.90
35559;DHT22;21661;50.794;-1.066;2022-12-18T11:10:56;6.80;99.90
35559;DHT22;21661;50.794;-1.066;2022-12-18T11:13:24;6.80;99.90
35559;DHT22;21661;50.794;-1.066;2022-12-18T11:15:51;6.90;99.90
35559;DHT22;21661;50.794;-1.066;2022-12-18T11:18:27;6.90;99.90
35559;DHT22;21661;50.794;-1.066;2022-12-18T11:20:56;7.00;99.90
35559;DHT22;21661;50.794;-1.066;2022-12-18T11:23:23;7.00;99.90
35559;DHT22;21661;50.794;-1.066;2022-12-18T11:25:55;7.00;99.90
35559;DHT22;21661;50.794;-1.066;2022-12-18T11:28:36;7.00;99.90
35559;DHT22;21661;50.794;-1.066;2022-12-18T11:33:55;7.10;99.90
35559;DHT22;21661;50.794;-1.066;2022-12-18T11:36:23;7.10;99.90
35559;DHT22;21661;50.794;-1.066;2022-12-18T11:38:52;7.10;99.90
35559;DHT22;21661;50.794;-1.066;2022-12-18T11:44:32;7.10;99.90
35559;DHT22;21661;50.794;-1.066;2022-12-18T11:47:08;7.20;99.90
35559;DHT22;21661;50.794;-1.066;2022-12-18T11:49:35;7.20;99.90
35559;DHT22;21661;50.794;-1.066;2022-12-18T11:52:21;7.10;99.90
35559;DHT22;21661;50.794;-1.066;2022-12-18T11:54:52;7.20;99.90
35559;DHT22;21661;50.794;-1.066;2022-12-18T12:00:13;7.20;99.90
35559;DHT22;21661;50.794;-1.066;2022-12-18T12:16:13;7.30;99.90
35559;DHT22;21661;50.794;-1.066;2022-12-18T12:21:23;7.40;99.90
35559;DHT22;21661;50.794;-1.066;2022-12-18T12:26:49;7.50;99.90
35559;DHT22;21661;50.794;-1.066;2022-12-18T12:40:24;7.60;99.90
35559;DHT22;21661;50.794;-1.066;2022-12-18T12:42:55;7.60;99.90
35559;DHT22;21661;50.794;-1.066;2022-12-18T12:50:50;7.60;99.90
35559;DHT22;21661;50.794;-1.066;2022-12-18T12:53:26;7.60;99.90
35559;DHT22;21661;50.794;-1.066;2022-12-18T12:55:54;7.60;99.90
35559;DHT22;21661;50.794;-1.066;2022-12-18T12:58:57;7.70;99.90
35559;DHT22;21661;50.794;-1.066;2022-12-18T13:10:12;7.70;99.90
35559;DHT22;21661;50.794;-1.066;2022-12-18T13:20:36;7.80;99.90
35559;DHT22;21661;50.794;-1.066;2022-12-18T13:30:59;7.70;99.90
35559;DHT22;21661;50.794;-1.066;2022-12-18T13:36:28;7.90;99.90
35559;DHT22;21661;50.794;-1.066;2022-12-18T13:41:51;7.90;99.90
35559;DHT22;21661;50.794;-1.066;2022-12-18T13:44:40;7.90;99.90
35559;DHT22;21661;50.794;-1.066;2022-12-18T13:49:50;8.00;99.90
35559;DHT22;21661;50.794;-1.066;2022-12-18T13:52:22;8.00;99.90
35559;DHT22;21661;50.794;-1.066;2022-12-18T13:54:57;8.00;99.90
35559;DHT22;21661;50.794;-1.066;2022-12-18T13:57:35;8.00;99.90
35559;DHT22;21661;50.794;-1.066;2022-12-18T14:02:48;8.10;99.90
35559;DHT22;21661;50.794;-1.066;2022-12-18T14:05:30;8.10;99.90
35559;DHT22;21661;50.794;-1.066;2022-12-18T14:08:01;8.00;99.90
35559;DHT22;21661;50.794;-1.066;2022-12-18T14:10:32;8.20;99.90
35559;DHT22;21661;50.794;-1.066;2022-12-18T14:13:05;8.20;99.90
35559;DHT22;21661;50.794;-1.066;2022-12-18T14:15:31;8.20;99.90
35559;DHT22;21661;50.794;-1.066;2022-12-18T14:20:51;8.20;99.90
35559;DHT22;21661;50.794;-1.066;2022-12-18T14:25:58;8.20;99.90
35559;DHT22;21661;50.794;-1.066;2022-12-18T14:28:24;8.30;99.90
35559;DHT22;21661;50.794;-1.066;2022-12-18T14:30:52;8.30;99.90
35559;DHT22;21661;50.794;-1.066;2022-12-18T14:33:26;8.30;99.90
35559;DHT22;21661;50.794;-1.066;2022-12-18T14:36:03;8.30;99.90
35559;DHT22;21661;50.794;-1.066;2022-12-18T14:38:37;8.30;99.90
35559;DHT22;21661;50.794;-1.066;2022-12-18T14:43:35;8.30;99.90
35559;DHT22;21661;50.794;-1.066;2022-12-18T14:46:45;8.30;99.90
35559;DHT22;21661;50.794;-1.066;2022-12-18T14:48:52;8.30;99.90
35559;DHT22;21661;50.794;-1.066;2022-12-18T14:51:26;8.40;99.90
35559;DHT22;21661;50.794;-1.066;2022-12-18T14:54:01;8.40;99.90
35559;DHT22;21661;50.794;-1.066;2022-12-18T14:56:42;8.30;99.90
35559;DHT22;21661;50.794;-1.066;2022-12-18T14:59:37;8.30;99.90
35559;DHT22;21661;50.794;-1.066;2022-12-18T15:04:38;8.40;99.90
35559;DHT22;21661;50.794;-1.066;2022-12-18T15:07:16;8.40;99.90
35559;DHT22;21661;50.794;-1.066;2022-12-18T15:10:10;8.50;99.90
35559;DHT22;21661;50.794;-1.066;2022-12-18T15:12:44;8.40;99.90
35559;DHT22;21661;50.794;-1.066;2022-12-18T15:25:57;8.30;99.90
35559;DHT22;21661;50.794;-1.066;2022-12-18T15:28:30;8.40;99.90
35559;DHT22;21661;50.794;-1.066;2022-12-18T15:33:26;8.40;99.90
35559;DHT22;21661;50.794;-1.066;2022-12-18T15:36:03;8.40;99.90
35559;DHT22;21661;50.794;-1.066;2022-12-18T15:38:29;8.40;99.90
35559;DHT22;21661;50.794;-1.066;2022-12-18T15:40:55;8.40;99.90
35559;DHT22;21661;50.794;-1.066;2022-12-18T15:43:23;8.50;99.90
35559;DHT22;21661;50.794;-1.066;2022-12-18T15:46:02;8.50;99.90
35559;DHT22;21661;50.794;-1.066;2022-12-18T15:48:27;8.50;99.90
35559;DHT22;21661;50.794;-1.066;2022-12-18T15:50:55;8.50;99.90
35559;DHT22;21661;50.794;-1.066;2022-12-18T15:53:23;8.50;99.90
35559;DHT22;21661;50.794;-1.066;2022-12-18T15:55:49;8.50;99.90
35559;DHT22;21661;50.794;-1.066;2022-12-18T15:58:33;8.50;99.90
35559;DHT22;21661;50.794;-1.066;2022-12-18T16:00:59;8.60;99.90
35559;DHT22;21661;50.794;-1.066;2022-12-18T16:03:25;8.50;99.90
35559;DHT22;21661;50.794;-1.066;2022-12-18T16:05:51;8.60;99.90
35559;DHT22;21661;50.794;-1.066;2022-12-18T16:08:17;8.60;99.90
35559;DHT22;21661;50.794;-1.066;2022-12-18T16:10:42;8.60;99.90
35559;DHT22;21661;50.794;-1.066;2022-12-18T16:13:11;8.70;99.90
35559;DHT22;21661;50.794;-1.066;2022-12-18T16:15:37;8.70;99.90
35559;DHT22;21661;50.794;-1.066;2022-12-18T16:18:03;8.70;99.90
35559;DHT22;21661;50.794;-1.066;2022-12-18T16:20:28;8.70;99.90
35559;DHT22;21661;50.794;-1.066;2022-12-18T16:22:54;8.70;99.90
35559;DHT22;21661;50.794;-1.066;2022-12-18T16:25:25;8.70;99.90
35559;DHT22;21661;50.794;-1.066;2022-12-18T16:27:52;8.80;99.90
35559;DHT22;21661;50.794;-1.066;2022-12-18T16:30:23;8.80;99.90
35559;DHT22;21661;50.794;-1.066;2022-12-18T16:32:49;8.80;99.90
35559;DHT22;21661;50.794;-1.066;2022-12-18T16:35:16;8.80;99.90
35559;DHT22;21661;50.794;-1.066;2022-12-18T16:37:42;8.80;99.90
35559;DHT22;21661;50.794;-1.066;2022-12-18T16:40:10;8.80;99.90
35559;DHT22;21661;50.794;-1.066;2022-12-18T16:42:37;8.80;99.90
35559;DHT22;21661;50.794;-1.066;2022-12-18T16:45:03;8.80;99.90
35559;DHT22;21661;50.794;-1.066;2022-12-18T16:47:29;8.80;99.90
35559;DHT22;21661;50.794;-1.066;2022-12-18T16:49:54;8.80;99.90
35559;DHT22;21661;50.794;-1.066;2022-12-18T16:52:20;8.90;99.90
35559;DHT22;21661;50.794;-1.066;2022-12-18T16:54:46;8.90;99.90
35559;DHT22;21661;50.794;-1.066;2022-12-18T16:57:14;9.00;99.90
35559;DHT22;21661;50.794;-1.066;2022-12-18T16:59:40;9.00;99.90
35559;DHT22;21661;50.794;-1.066;2022-12-18T17:02:12;9.00;99.90
35559;DHT22;21661;50.794;-1.066;2022-12-18T17:04:39;9.10;99.90
35559;DHT22;21661;50.794;-1.066;2022-12-18T17:07:05;9.10;99.90
35559;DHT22;21661;50.794;-1.066;2022-12-18T17:09:31;9.10;99.90
35559;DHT22;21661;50.794;-1.066;2022-12-18T17:11:57;9.10;99.90
35559;DHT22;21661;50.794;-1.066;2022-12-18T17:14:23;9.10;99.90
35559;DHT22;21661;50.794;-1.066;2022-12-18T17:16:49;9.10;99.90
35559;DHT22;21661;50.794;-1.066;2022-12-18T17:19:15;9.00;99.90
35559;DHT22;21661;50.794;-1.066;2022-12-18T17:21:45;9.10;99.90
35559;DHT22;21661;50.794;-1.066;2022-12-18T17:24:11;9.10;99.90
35559;DHT22;21661;50.794;-1.066;2022-12-18T17:26:37;9.10;99.90
35559;DHT22;21661;50.794;-1.066;2022-12-18T17:29:03;9.10;99.90
35559;DHT22;21661;50.794;-1.066;2022-12-18T17:31:29;9.10;99.90
35559;DHT22;21661;50.794;-1.066;2022-12-18T17:33:56;9.10;99.90
35559;DHT22;21661;50.794;-1.066;2022-12-18T17:36:22;9.10;99.90
35559;DHT22;21661;50.794;-1.066;2022-12-18T17:38:53;9.10;99.90
35559;DHT22;21661;50.794;-1.066;2022-12-18T17:41:19;9.10;99.90
35559;DHT22;21661;50.794;-1.066;2022-12-18T17:43:53;9.10;99.90
35559;DHT22;21661;50.794;-1.066;2022-12-18T17:46:19;9.10;99.90
35559;DHT22;21661;50.794;-1.066;2022-12-18T17:48:45;9.10;99.90
35559;DHT22;21661;50.794;-1.066;2022-12-18T17:51:12;9.10;99.90
35559;DHT22;21661;50.794;-1.066;2022-12-18T17:53:38;9.10;99.90
35559;DHT22;21661;50.794;-1.066;2022-12-18T17:56:04;9.10;99.90
35559;DHT22;21661;50.794;-1.066;2022-12-18T17:58:31;9.10;99.90
35559;DHT22;21661;50.794;-1.066;2022-12-18T18:00:58;9.20;99.90
35559;DHT22;21661;50.794;-1.066;2022-12-18T18:03:23;9.10;99.90
35559;DHT22;21661;50.794;-1.066;2022-12-18T18:06:02;9.10;99.90
35559;DHT22;21661;50.794;-1.066;2022-12-18T18:08:28;9.20;99.90
35559;DHT22;21661;50.794;-1.066;2022-12-18T18:10:55;9.20;99.90
35559;DHT22;21661;50.794;-1.066;2022-12-18T18:13:40;9.20;99.90
35559;DHT22;21661;50.794;-1.066;2022-12-18T18:16:24;9.20;99.90
35559;DHT22;21661;50.794;-1.066;2022-12-18T18:18:50;9.20;99.90
35559;DHT22;21661;50.794;-1.066;2022-12-18T18:21:15;9.10;99.90
35559;DHT22;21661;50.794;-1.066;2022-12-18T18:23:41;9.20;99.90
35559;DHT22;21661;50.794;-1.066;2022-12-18T18:26:07;9.20;99.90